sensor_id;sensor_type;location;lat;lon;timestamp;P1;durP1;ratioP1;P2;durP2;ratioP2
11964;SDS011;6042;41.326;19.826;2023-03-23T00:00:17;9.10;;;7.63;;
11964;SDS011;6042;41.326;19.826;2023-03-23T00:02:44;8.63;;;7.83;;
11964;SDS011;6042;41.326;19.826;2023-03-23T00:05:12;11.70;;;8.03;;
11964;SDS011;6042;41.326;19.826;2023-03-23T00:07:39;11.37;;;8.10;;
11964;SDS011;6042;41.326;19.826;2023-03-23T00:10:12;11.10;;;8.00;;
11964;SDS011;6042;41.326;19.826;2023-03-23T00:12:40;13.60;;;8.07;;
11964;SDS011;6042;41.326;19.826;2023-03-23T00:15:08;8.70;;;7.80;;
11964;SDS011;6042;41.326;19.826;2023-03-23T00:17:38;8.73;;;7.83;;
11964;SDS011;6042;41.326;19.826;2023-03-23T00:20:06;12.10;;;7.47;;
11964;SDS011;6042;41.326;19.826;2023-03-23T00:22:35;9.53;;;6.97;;
11964;SDS011;6042;41.326;19.826;2023-03-23T00:25:03;9.23;;;6.97;;
11964;SDS011;6042;41.326;19.826;2023-03-23T00:27:32;9.27;;;7.40;;
11964;SDS011;6042;41.326;19.826;2023-03-23T00:30:00;8.37;;;7.00;;
11964;SDS011;6042;41.326;19.826;2023-03-23T00:32:27;8.30;;;7.50;;
11964;SDS011;6042;41.326;19.826;2023-03-23T00:34:55;11.43;;;7.67;;
11964;SDS011;6042;41.326;19.826;2023-03-23T00:37:24;10.07;;;7.33;;
11964;SDS011;6042;41.326;19.826;2023-03-23T00:39:52;10.00;;;7.97;;
11964;SDS011;6042;41.326;19.826;2023-03-23T00:42:22;15.40;;;7.57;;
11964;SDS011;6042;41.326;19.826;2023-03-23T00:44:53;12.77;;;7.63;;
11964;SDS011;6042;41.326;19.826;2023-03-23T00:47:25;11.17;;;6.77;;
11964;SDS011;6042;41.326;19.826;2023-03-23T00:49:53;8.53;;;6.37;;
11964;SDS011;6042;41.326;19.826;2023-03-23T00:52:21;9.67;;;7.03;;
11964;SDS011;6042;41.326;19.826;2023-03-23T00:54:49;10.37;;;7.37;;
11964;SDS011;6042;41.326;19.826;2023-03-23T00:57:16;7.33;;;6.53;;
11964;SDS011;6042;41.326;19.826;2023-03-23T00:59:43;7.73;;;6.43;;
11964;SDS011;6042;41.326;19.826;2023-03-23T01:02:12;7.47;;;6.63;;
11964;SDS011;6042;41.326;19.826;2023-03-23T01:04:40;8.07;;;6.80;;
11964;SDS011;6042;41.326;19.826;2023-03-23T01:07:11;7.30;;;6.17;;
11964;SDS011;6042;41.326;19.826;2023-03-23T01:09:39;7.27;;;5.60;;
11964;SDS011;6042;41.326;19.826;2023-03-23T01:12:11;7.23;;;5.97;;
11964;SDS011;6042;41.326;19.826;2023-03-23T01:14:40;8.77;;;6.03;;
11964;SDS011;6042;41.326;19.826;2023-03-23T01:17:08;7.83;;;7.03;;
11964;SDS011;6042;41.326;19.826;2023-03-23T01:19:37;6.30;;;5.70;;
11964;SDS011;6042;41.326;19.826;2023-03-23T01:22:05;6.93;;;5.50;;
11964;SDS011;6042;41.326;19.826;2023-03-23T01:24:33;6.07;;;5.57;;
11964;SDS011;6042;41.326;19.826;2023-03-23T01:27:00;7.70;;;5.23;;
11964;SDS011;6042;41.326;19.826;2023-03-23T01:29:32;10.83;;;5.87;;
11964;SDS011;6042;41.326;19.826;2023-03-23T01:32:00;6.20;;;5.60;;
11964;SDS011;6042;41.326;19.826;2023-03-23T01:34:27;5.63;;;5.13;;
11964;SDS011;6042;41.326;19.826;2023-03-23T01:36:56;6.03;;;5.43;;
11964;SDS011;6042;41.326;19.826;2023-03-23T01:39:24;6.77;;;4.67;;
11964;SDS011;6042;41.326;19.826;2023-03-23T01:41:51;6.70;;;4.73;;
11964;SDS011;6042;41.326;19.826;2023-03-23T01:47:25;6.47;;;5.00;;
11964;SDS011;6042;41.326;19.826;2023-03-23T01:49:53;6.00;;;4.93;;
11964;SDS011;6042;41.326;19.826;2023-03-23T01:52:23;5.87;;;5.33;;
11964;SDS011;6042;41.326;19.826;2023-03-23T01:54:59;7.97;;;5.77;;
11964;SDS011;6042;41.326;19.826;2023-03-23T01:57:27;8.50;;;5.50;;
11964;SDS011;6042;41.326;19.826;2023-03-23T01:59:58;7.37;;;5.20;;
11964;SDS011;6042;41.326;19.826;2023-03-23T02:02:45;5.27;;;4.87;;
11964;SDS011;6042;41.326;19.826;2023-03-23T02:05:19;5.07;;;4.67;;
11964;SDS011;6042;41.326;19.826;2023-03-23T02:07:52;5.43;;;4.83;;
11964;SDS011;6042;41.326;19.826;2023-03-23T02:10:20;7.53;;;5.20;;
11964;SDS011;6042;41.326;19.826;2023-03-23T02:12:48;5.20;;;4.70;;
11964;SDS011;6042;41.326;19.826;2023-03-23T02:15:15;5.23;;;4.73;;
11964;SDS011;6042;41.326;19.826;2023-03-23T02:17:45;6.27;;;4.70;;
11964;SDS011;6042;41.326;19.826;2023-03-23T02:20:23;4.77;;;4.37;;
11964;SDS011;6042;41.326;19.826;2023-03-23T02:23:20;6.37;;;4.40;;
11964;SDS011;6042;41.326;19.826;2023-03-23T02:26:15;7.90;;;4.90;;
11964;SDS011;6042;41.326;19.826;2023-03-23T02:28:57;5.30;;;4.80;;
11964;SDS011;6042;41.326;19.826;2023-03-23T02:31:55;6.93;;;5.00;;
11964;SDS011;6042;41.326;19.826;2023-03-23T02:34:34;6.23;;;5.13;;
11964;SDS011;6042;41.326;19.826;2023-03-23T02:37:07;4.83;;;4.33;;
11964;SDS011;6042;41.326;19.826;2023-03-23T02:39:41;5.80;;;4.60;;
11964;SDS011;6042;41.326;19.826;2023-03-23T02:42:14;4.80;;;4.30;;
11964;SDS011;6042;41.326;19.826;2023-03-23T02:44:45;5.53;;;4.60;;
11964;SDS011;6042;41.326;19.826;2023-03-23T02:47:16;6.93;;;4.60;;
11964;SDS011;6042;41.326;19.826;2023-03-23T02:49:48;6.27;;;3.90;;
11964;SDS011;6042;41.326;19.826;2023-03-23T02:52:19;4.70;;;4.20;;
11964;SDS011;6042;41.326;19.826;2023-03-23T02:54:51;5.33;;;4.00;;
11964;SDS011;6042;41.326;19.826;2023-03-23T02:57:21;4.80;;;3.70;;
11964;SDS011;6042;41.326;19.826;2023-03-23T02:59:51;4.17;;;3.73;;
11964;SDS011;6042;41.326;19.826;2023-03-23T03:02:20;3.80;;;3.50;;
11964;SDS011;6042;41.326;19.826;2023-03-23T03:04:53;6.17;;;3.50;;
11964;SDS011;6042;41.326;19.826;2023-03-23T03:07:43;5.33;;;4.00;;
11964;SDS011;6042;41.326;19.826;2023-03-23T03:10:22;4.87;;;3.70;;
11964;SDS011;6042;41.326;19.826;2023-03-23T03:12:55;3.70;;;3.20;;
11964;SDS011;6042;41.326;19.826;2023-03-23T03:15:30;3.90;;;3.60;;
11964;SDS011;6042;41.326;19.826;2023-03-23T03:18:04;3.20;;;2.90;;
11964;SDS011;6042;41.326;19.826;2023-03-23T03:20:40;6.80;;;3.33;;
11964;SDS011;6042;41.326;19.826;2023-03-23T03:23:13;3.13;;;2.83;;
11964;SDS011;6042;41.326;19.826;2023-03-23T03:25:43;2.60;;;2.40;;
11964;SDS011;6042;41.326;19.826;2023-03-23T03:28:19;3.30;;;3.00;;
11964;SDS011;6042;41.326;19.826;2023-03-23T03:30:51;3.33;;;2.63;;
11964;SDS011;6042;41.326;19.826;2023-03-23T03:33:21;3.17;;;2.60;;
11964;SDS011;6042;41.326;19.826;2023-03-23T03:35:53;4.93;;;2.60;;
11964;SDS011;6042;41.326;19.826;2023-03-23T03:38:21;2.93;;;2.70;;
11964;SDS011;6042;41.326;19.826;2023-03-23T03:40:51;2.67;;;2.47;;
11964;SDS011;6042;41.326;19.826;2023-03-23T03:43:19;2.90;;;2.60;;
11964;SDS011;6042;41.326;19.826;2023-03-23T03:45:47;2.97;;;2.67;;
11964;SDS011;6042;41.326;19.826;2023-03-23T03:48:15;2.80;;;2.57;;
11964;SDS011;6042;41.326;19.826;2023-03-23T03:50:42;2.40;;;2.20;;
11964;SDS011;6042;41.326;19.826;2023-03-23T03:53:13;2.90;;;2.60;;
11964;SDS011;6042;41.326;19.826;2023-03-23T03:55:42;3.23;;;2.93;;
11964;SDS011;6042;41.326;19.826;2023-03-23T03:58:15;4.43;;;2.63;;
11964;SDS011;6042;41.326;19.826;2023-03-23T04:01:07;2.47;;;2.33;;
11964;SDS011;6042;41.326;19.826;2023-03-23T04:03:39;2.20;;;2.10;;
11964;SDS011;6042;41.326;19.826;2023-03-23T04:06:12;2.50;;;2.30;;
11964;SDS011;6042;41.326;19.826;2023-03-23T04:08:41;2.93;;;2.23;;
11964;SDS011;6042;41.326;19.826;2023-03-23T04:11:10;2.60;;;2.40;;
11964;SDS011;6042;41.326;19.826;2023-03-23T04:13:39;2.20;;;2.10;;
11964;SDS011;6042;41.326;19.826;2023-03-23T04:16:16;2.57;;;2.30;;
11964;SDS011;6042;41.326;19.826;2023-03-23T04:18:44;2.80;;;2.43;;
11964;SDS011;6042;41.326;19.826;2023-03-23T04:21:13;2.70;;;2.30;;
11964;SDS011;6042;41.326;19.826;2023-03-23T04:23:45;2.03;;;1.93;;
11964;SDS011;6042;41.326;19.826;2023-03-23T04:26:14;2.80;;;2.33;;
11964;SDS011;6042;41.326;19.826;2023-03-23T04:28:46;3.20;;;2.70;;
11964;SDS011;6042;41.326;19.826;2023-03-23T04:31:40;4.67;;;2.93;;
11964;SDS011;6042;41.326;19.826;2023-03-23T04:34:30;3.60;;;2.60;;
11964;SDS011;6042;41.326;19.826;2023-03-23T04:37:00;2.50;;;2.30;;
11964;SDS011;6042;41.326;19.826;2023-03-23T04:39:31;3.13;;;2.73;;
11964;SDS011;6042;41.326;19.826;2023-03-23T04:42:02;6.47;;;2.57;;
11964;SDS011;6042;41.326;19.826;2023-03-23T04:44:52;2.80;;;2.50;;
11964;SDS011;6042;41.326;19.826;2023-03-23T04:47:27;3.70;;;2.40;;
11964;SDS011;6042;41.326;19.826;2023-03-23T04:49:57;2.53;;;2.33;;
11964;SDS011;6042;41.326;19.826;2023-03-23T04:52:34;5.93;;;2.77;;
11964;SDS011;6042;41.326;19.826;2023-03-23T04:55:06;2.90;;;2.70;;
11964;SDS011;6042;41.326;19.826;2023-03-23T04:57:36;5.47;;;2.70;;
11964;SDS011;6042;41.326;19.826;2023-03-23T05:00:36;8.13;;;2.70;;
11964;SDS011;6042;41.326;19.826;2023-03-23T05:03:04;4.20;;;2.40;;
11964;SDS011;6042;41.326;19.826;2023-03-23T05:05:33;14.30;;;3.20;;
11964;SDS011;6042;41.326;19.826;2023-03-23T05:08:05;5.23;;;2.53;;
11964;SDS011;6042;41.326;19.826;2023-03-23T05:10:37;5.10;;;2.77;;
11964;SDS011;6042;41.326;19.826;2023-03-23T05:13:09;8.03;;;2.67;;
11964;SDS011;6042;41.326;19.826;2023-03-23T05:15:37;4.77;;;2.70;;
11964;SDS011;6042;41.326;19.826;2023-03-23T05:18:07;5.67;;;2.67;;
11964;SDS011;6042;41.326;19.826;2023-03-23T05:20:35;3.03;;;2.40;;
11964;SDS011;6042;41.326;19.826;2023-03-23T05:23:09;3.27;;;2.80;;
11964;SDS011;6042;41.326;19.826;2023-03-23T05:25:40;7.17;;;3.23;;
11964;SDS011;6042;41.326;19.826;2023-03-23T05:28:15;4.00;;;2.80;;
11964;SDS011;6042;41.326;19.826;2023-03-23T05:30:53;3.90;;;2.97;;
11964;SDS011;6042;41.326;19.826;2023-03-23T05:33:23;7.00;;;2.83;;
11964;SDS011;6042;41.326;19.826;2023-03-23T05:36:05;5.83;;;3.57;;
11964;SDS011;6042;41.326;19.826;2023-03-23T05:38:56;7.40;;;3.30;;
11964;SDS011;6042;41.326;19.826;2023-03-23T05:41:38;4.87;;;2.93;;
11964;SDS011;6042;41.326;19.826;2023-03-23T05:44:06;4.17;;;3.00;;
11964;SDS011;6042;41.326;19.826;2023-03-23T05:46:53;4.30;;;2.90;;
11964;SDS011;6042;41.326;19.826;2023-03-23T05:49:21;6.13;;;3.00;;
11964;SDS011;6042;41.326;19.826;2023-03-23T05:51:49;3.63;;;2.87;;
11964;SDS011;6042;41.326;19.826;2023-03-23T05:54:18;10.70;;;3.77;;
11964;SDS011;6042;41.326;19.826;2023-03-23T05:56:49;3.40;;;2.47;;
11964;SDS011;6042;41.326;19.826;2023-03-23T05:59:34;2.83;;;2.33;;
11964;SDS011;6042;41.326;19.826;2023-03-23T06:02:05;4.40;;;2.80;;
11964;SDS011;6042;41.326;19.826;2023-03-23T06:04:32;3.67;;;2.40;;
11964;SDS011;6042;41.326;19.826;2023-03-23T06:07:09;4.03;;;2.40;;
11964;SDS011;6042;41.326;19.826;2023-03-23T06:09:46;2.57;;;2.27;;
11964;SDS011;6042;41.326;19.826;2023-03-23T06:12:25;4.73;;;2.80;;
11964;SDS011;6042;41.326;19.826;2023-03-23T06:15:15;3.77;;;2.60;;
11964;SDS011;6042;41.326;19.826;2023-03-23T06:18:03;7.17;;;2.90;;
11964;SDS011;6042;41.326;19.826;2023-03-23T06:20:40;7.67;;;3.20;;
11964;SDS011;6042;41.326;19.826;2023-03-23T06:23:28;7.33;;;2.83;;
11964;SDS011;6042;41.326;19.826;2023-03-23T06:25:57;6.47;;;2.80;;
11964;SDS011;6042;41.326;19.826;2023-03-23T06:28:28;5.87;;;2.77;;
11964;SDS011;6042;41.326;19.826;2023-03-23T06:30:58;4.93;;;2.77;;
11964;SDS011;6042;41.326;19.826;2023-03-23T06:33:26;2.43;;;2.23;;
11964;SDS011;6042;41.326;19.826;2023-03-23T06:36:11;4.17;;;2.57;;
11964;SDS011;6042;41.326;19.826;2023-03-23T06:39:00;10.17;;;3.53;;
11964;SDS011;6042;41.326;19.826;2023-03-23T06:41:43;6.57;;;2.60;;
11964;SDS011;6042;41.326;19.826;2023-03-23T06:44:12;4.77;;;2.40;;
11964;SDS011;6042;41.326;19.826;2023-03-23T06:46:40;5.87;;;2.77;;
11964;SDS011;6042;41.326;19.826;2023-03-23T06:49:33;3.53;;;2.50;;
11964;SDS011;6042;41.326;19.826;2023-03-23T06:52:10;8.03;;;2.73;;
11964;SDS011;6042;41.326;19.826;2023-03-23T06:54:38;2.90;;;2.60;;
11964;SDS011;6042;41.326;19.826;2023-03-23T06:57:07;6.17;;;2.60;;
11964;SDS011;6042;41.326;19.826;2023-03-23T06:59:36;3.83;;;2.43;;
11964;SDS011;6042;41.326;19.826;2023-03-23T07:02:04;10.93;;;2.97;;
11964;SDS011;6042;41.326;19.826;2023-03-23T07:04:32;6.50;;;3.00;;
11964;SDS011;6042;41.326;19.826;2023-03-23T07:07:05;6.67;;;3.03;;
11964;SDS011;6042;41.326;19.826;2023-03-23T07:09:43;5.73;;;3.00;;
11964;SDS011;6042;41.326;19.826;2023-03-23T07:12:11;4.80;;;3.10;;
11964;SDS011;6042;41.326;19.826;2023-03-23T07:14:46;4.33;;;3.07;;
11964;SDS011;6042;41.326;19.826;2023-03-23T07:17:13;7.50;;;3.13;;
11964;SDS011;6042;41.326;19.826;2023-03-23T07:19:56;8.50;;;3.17;;
11964;SDS011;6042;41.326;19.826;2023-03-23T07:22:25;5.63;;;3.20;;
11964;SDS011;6042;41.326;19.826;2023-03-23T07:25:02;16.07;;;3.90;;
11964;SDS011;6042;41.326;19.826;2023-03-23T07:27:41;8.43;;;2.60;;
11964;SDS011;6042;41.326;19.826;2023-03-23T07:30:12;5.97;;;2.63;;
11964;SDS011;6042;41.326;19.826;2023-03-23T07:32:40;4.87;;;2.47;;
11964;SDS011;6042;41.326;19.826;2023-03-23T07:35:08;3.57;;;2.07;;
11964;SDS011;6042;41.326;19.826;2023-03-23T07:37:55;6.07;;;2.47;;
11964;SDS011;6042;41.326;19.826;2023-03-23T07:40:22;4.50;;;2.27;;
11964;SDS011;6042;41.326;19.826;2023-03-23T07:42:53;9.23;;;2.40;;
11964;SDS011;6042;41.326;19.826;2023-03-23T07:45:39;4.13;;;1.83;;
11964;SDS011;6042;41.326;19.826;2023-03-23T07:48:06;5.87;;;2.20;;
11964;SDS011;6042;41.326;19.826;2023-03-23T07:50:34;6.03;;;2.23;;
11964;SDS011;6042;41.326;19.826;2023-03-23T07:53:06;3.00;;;2.00;;
11964;SDS011;6042;41.326;19.826;2023-03-23T07:55:35;3.17;;;2.10;;
11964;SDS011;6042;41.326;19.826;2023-03-23T07:58:25;2.70;;;2.10;;
11964;SDS011;6042;41.326;19.826;2023-03-23T08:00:56;8.90;;;2.93;;
11964;SDS011;6042;41.326;19.826;2023-03-23T08:03:29;2.80;;;2.07;;
11964;SDS011;6042;41.326;19.826;2023-03-23T08:06:19;6.20;;;2.20;;
11964;SDS011;6042;41.326;19.826;2023-03-23T08:09:05;2.87;;;2.07;;
11964;SDS011;6042;41.326;19.826;2023-03-23T08:12:06;9.80;;;2.33;;
11964;SDS011;6042;41.326;19.826;2023-03-23T08:15:01;6.93;;;3.13;;
11964;SDS011;6042;41.326;19.826;2023-03-23T08:17:55;6.67;;;2.40;;
11964;SDS011;6042;41.326;19.826;2023-03-23T08:20:46;6.17;;;2.40;;
11964;SDS011;6042;41.326;19.826;2023-03-23T08:23:37;2.73;;;1.77;;
11964;SDS011;6042;41.326;19.826;2023-03-23T08:26:19;2.00;;;1.90;;
11964;SDS011;6042;41.326;19.826;2023-03-23T08:28:59;2.53;;;2.33;;
11964;SDS011;6042;41.326;19.826;2023-03-23T08:31:46;5.57;;;2.57;;
11964;SDS011;6042;41.326;19.826;2023-03-23T08:34:38;2.83;;;2.07;;
11964;SDS011;6042;41.326;19.826;2023-03-23T08:37:37;6.47;;;2.70;;
11964;SDS011;6042;41.326;19.826;2023-03-23T08:40:40;5.57;;;2.30;;
11964;SDS011;6042;41.326;19.826;2023-03-23T08:43:37;6.13;;;2.90;;
11964;SDS011;6042;41.326;19.826;2023-03-23T08:46:31;6.80;;;2.97;;
11964;SDS011;6042;41.326;19.826;2023-03-23T08:49:16;4.53;;;2.40;;
11964;SDS011;6042;41.326;19.826;2023-03-23T08:52:03;4.87;;;2.93;;
11964;SDS011;6042;41.326;19.826;2023-03-23T08:54:49;5.43;;;2.93;;
11964;SDS011;6042;41.326;19.826;2023-03-23T08:57:35;2.30;;;2.07;;
11964;SDS011;6042;41.326;19.826;2023-03-23T09:00:17;4.13;;;2.40;;
11964;SDS011;6042;41.326;19.826;2023-03-23T09:03:09;3.00;;;2.40;;
11964;SDS011;6042;41.326;19.826;2023-03-23T09:05:57;5.50;;;2.70;;
11964;SDS011;6042;41.326;19.826;2023-03-23T09:08:36;4.63;;;2.50;;
11964;SDS011;6042;41.326;19.826;2023-03-23T09:11:05;4.77;;;2.30;;
11964;SDS011;6042;41.326;19.826;2023-03-23T09:13:35;3.60;;;2.70;;
11964;SDS011;6042;41.326;19.826;2023-03-23T09:16:03;3.13;;;2.67;;
11964;SDS011;6042;41.326;19.826;2023-03-23T09:18:32;3.43;;;2.80;;
11964;SDS011;6042;41.326;19.826;2023-03-23T09:21:00;3.13;;;2.83;;
11964;SDS011;6042;41.326;19.826;2023-03-23T09:23:28;5.47;;;2.87;;
11964;SDS011;6042;41.326;19.826;2023-03-23T09:25:58;5.40;;;3.30;;
11964;SDS011;6042;41.326;19.826;2023-03-23T09:28:27;6.53;;;2.60;;
11964;SDS011;6042;41.326;19.826;2023-03-23T09:30:56;4.90;;;2.63;;
11964;SDS011;6042;41.326;19.826;2023-03-23T09:33:24;4.03;;;2.27;;
11964;SDS011;6042;41.326;19.826;2023-03-23T09:35:54;9.30;;;2.50;;
11964;SDS011;6042;41.326;19.826;2023-03-23T09:38:21;4.83;;;2.60;;
11964;SDS011;6042;41.326;19.826;2023-03-23T09:40:53;7.27;;;2.60;;
11964;SDS011;6042;41.326;19.826;2023-03-23T09:43:32;6.20;;;2.80;;
11964;SDS011;6042;41.326;19.826;2023-03-23T09:46:11;4.87;;;2.87;;
11964;SDS011;6042;41.326;19.826;2023-03-23T09:48:50;4.57;;;2.07;;
11964;SDS011;6042;41.326;19.826;2023-03-23T09:51:22;2.30;;;2.10;;
11964;SDS011;6042;41.326;19.826;2023-03-23T09:54:01;4.63;;;2.40;;
11964;SDS011;6042;41.326;19.826;2023-03-23T09:56:31;2.20;;;2.00;;
11964;SDS011;6042;41.326;19.826;2023-03-23T09:59:04;3.53;;;2.27;;
11964;SDS011;6042;41.326;19.826;2023-03-23T10:01:38;2.30;;;2.10;;
11964;SDS011;6042;41.326;19.826;2023-03-23T10:04:10;4.10;;;1.50;;
11964;SDS011;6042;41.326;19.826;2023-03-23T10:06:40;2.47;;;2.07;;
11964;SDS011;6042;41.326;19.826;2023-03-23T10:09:11;6.33;;;1.93;;
11964;SDS011;6042;41.326;19.826;2023-03-23T10:11:44;5.80;;;1.97;;
11964;SDS011;6042;41.326;19.826;2023-03-23T10:14:24;2.37;;;1.83;;
11964;SDS011;6042;41.326;19.826;2023-03-23T10:17:16;5.03;;;2.03;;
11964;SDS011;6042;41.326;19.826;2023-03-23T10:19:51;3.20;;;1.83;;
11964;SDS011;6042;41.326;19.826;2023-03-23T10:22:23;5.33;;;2.20;;
11964;SDS011;6042;41.326;19.826;2023-03-23T10:24:57;2.57;;;1.97;;
11964;SDS011;6042;41.326;19.826;2023-03-23T10:27:32;2.83;;;1.67;;
11964;SDS011;6042;41.326;19.826;2023-03-23T10:30:13;1.83;;;1.73;;
11964;SDS011;6042;41.326;19.826;2023-03-23T10:32:47;5.40;;;2.27;;
11964;SDS011;6042;41.326;19.826;2023-03-23T10:35:19;3.70;;;2.20;;
11964;SDS011;6042;41.326;19.826;2023-03-23T10:37:52;3.87;;;2.77;;
11964;SDS011;6042;41.326;19.826;2023-03-23T10:40:27;3.73;;;2.30;;
11964;SDS011;6042;41.326;19.826;2023-03-23T10:42:58;6.27;;;2.20;;
11964;SDS011;6042;41.326;19.826;2023-03-23T10:45:28;10.37;;;3.23;;
11964;SDS011;6042;41.326;19.826;2023-03-23T10:47:59;6.57;;;3.30;;
11964;SDS011;6042;41.326;19.826;2023-03-23T10:50:34;3.10;;;2.70;;
11964;SDS011;6042;41.326;19.826;2023-03-23T10:53:05;4.20;;;2.97;;
11964;SDS011;6042;41.326;19.826;2023-03-23T10:55:41;4.13;;;2.60;;
11964;SDS011;6042;41.326;19.826;2023-03-23T10:58:10;3.80;;;2.90;;
11964;SDS011;6042;41.326;19.826;2023-03-23T11:00:44;4.93;;;2.73;;
11964;SDS011;6042;41.326;19.826;2023-03-23T11:03:23;3.03;;;2.63;;
11964;SDS011;6042;41.326;19.826;2023-03-23T11:05:56;6.40;;;2.53;;
11964;SDS011;6042;41.326;19.826;2023-03-23T11:08:25;11.73;;;3.70;;
11964;SDS011;6042;41.326;19.826;2023-03-23T11:10:57;6.77;;;3.00;;
11964;SDS011;6042;41.326;19.826;2023-03-23T11:13:28;8.30;;;3.30;;
11964;SDS011;6042;41.326;19.826;2023-03-23T11:15:58;4.10;;;2.57;;
11964;SDS011;6042;41.326;19.826;2023-03-23T11:18:34;3.20;;;2.33;;
11964;SDS011;6042;41.326;19.826;2023-03-23T11:21:04;3.30;;;2.90;;
11964;SDS011;6042;41.326;19.826;2023-03-23T11:23:33;6.10;;;2.93;;
11964;SDS011;6042;41.326;19.826;2023-03-23T11:26:09;3.50;;;2.47;;
11964;SDS011;6042;41.326;19.826;2023-03-23T11:28:43;3.30;;;2.10;;
11964;SDS011;6042;41.326;19.826;2023-03-23T11:31:15;2.93;;;2.10;;
11964;SDS011;6042;41.326;19.826;2023-03-23T11:33:50;5.37;;;3.00;;
11964;SDS011;6042;41.326;19.826;2023-03-23T11:36:20;3.17;;;2.43;;
11964;SDS011;6042;41.326;19.826;2023-03-23T11:38:54;6.43;;;2.57;;
11964;SDS011;6042;41.326;19.826;2023-03-23T11:41:23;4.37;;;2.53;;
11964;SDS011;6042;41.326;19.826;2023-03-23T11:43:52;3.60;;;2.73;;
11964;SDS011;6042;41.326;19.826;2023-03-23T11:46:29;6.57;;;3.07;;
11964;SDS011;6042;41.326;19.826;2023-03-23T11:49:02;2.57;;;2.10;;
11964;SDS011;6042;41.326;19.826;2023-03-23T11:51:36;2.87;;;2.50;;
11964;SDS011;6042;41.326;19.826;2023-03-23T11:54:11;4.40;;;2.00;;
11964;SDS011;6042;41.326;19.826;2023-03-23T11:56:43;2.53;;;2.33;;
11964;SDS011;6042;41.326;19.826;2023-03-23T11:59:13;2.47;;;2.20;;
11964;SDS011;6042;41.326;19.826;2023-03-23T12:01:48;3.63;;;2.57;;
11964;SDS011;6042;41.326;19.826;2023-03-23T12:04:35;3.27;;;2.60;;
11964;SDS011;6042;41.326;19.826;2023-03-23T12:10:23;6.83;;;2.30;;
11964;SDS011;6042;41.326;19.826;2023-03-23T12:13:00;3.80;;;2.13;;
11964;SDS011;6042;41.326;19.826;2023-03-23T12:15:38;8.40;;;3.47;;
11964;SDS011;6042;41.326;19.826;2023-03-23T12:18:15;5.30;;;2.40;;
11964;SDS011;6042;41.326;19.826;2023-03-23T12:20:57;3.50;;;2.23;;
11964;SDS011;6042;41.326;19.826;2023-03-23T12:23:33;2.13;;;1.90;;
11964;SDS011;6042;41.326;19.826;2023-03-23T12:26:09;3.03;;;2.17;;
11964;SDS011;6042;41.326;19.826;2023-03-23T12:28:50;3.30;;;2.07;;
11964;SDS011;6042;41.326;19.826;2023-03-23T12:31:31;2.37;;;2.17;;
11964;SDS011;6042;41.326;19.826;2023-03-23T12:34:07;4.03;;;2.27;;
11964;SDS011;6042;41.326;19.826;2023-03-23T12:36:47;3.73;;;2.17;;
11964;SDS011;6042;41.326;19.826;2023-03-23T12:42:16;2.33;;;2.00;;
11964;SDS011;6042;41.326;19.826;2023-03-23T12:44:53;5.83;;;1.70;;
11964;SDS011;6042;41.326;19.826;2023-03-23T12:47:31;3.30;;;1.97;;
11964;SDS011;6042;41.326;19.826;2023-03-23T12:50:07;1.73;;;1.63;;
11964;SDS011;6042;41.326;19.826;2023-03-23T12:52:42;2.70;;;2.00;;
11964;SDS011;6042;41.326;19.826;2023-03-23T12:55:16;3.73;;;2.10;;
11964;SDS011;6042;41.326;19.826;2023-03-23T12:57:48;1.93;;;1.73;;
11964;SDS011;6042;41.326;19.826;2023-03-23T13:00:21;3.30;;;2.50;;
11964;SDS011;6042;41.326;19.826;2023-03-23T13:02:54;2.60;;;2.37;;
11964;SDS011;6042;41.326;19.826;2023-03-23T13:05:28;2.23;;;1.83;;
11964;SDS011;6042;41.326;19.826;2023-03-23T13:08:02;3.43;;;1.90;;
11964;SDS011;6042;41.326;19.826;2023-03-23T13:10:33;2.17;;;1.97;;
11964;SDS011;6042;41.326;19.826;2023-03-23T13:13:07;3.60;;;1.97;;
11964;SDS011;6042;41.326;19.826;2023-03-23T13:15:43;4.73;;;2.30;;
11964;SDS011;6042;41.326;19.826;2023-03-23T13:18:19;2.00;;;1.87;;
11964;SDS011;6042;41.326;19.826;2023-03-23T13:21:00;5.87;;;3.13;;
11964;SDS011;6042;41.326;19.826;2023-03-23T13:23:38;1.80;;;1.70;;
11964;SDS011;6042;41.326;19.826;2023-03-23T13:26:11;2.83;;;1.97;;
11964;SDS011;6042;41.326;19.826;2023-03-23T13:28:49;4.50;;;2.10;;
11964;SDS011;6042;41.326;19.826;2023-03-23T13:31:22;2.20;;;1.97;;
11964;SDS011;6042;41.326;19.826;2023-03-23T13:34:03;2.17;;;1.90;;
11964;SDS011;6042;41.326;19.826;2023-03-23T13:36:36;5.00;;;2.40;;
11964;SDS011;6042;41.326;19.826;2023-03-23T13:39:05;3.73;;;2.07;;
11964;SDS011;6042;41.326;19.826;2023-03-23T13:41:47;2.70;;;2.13;;
11964;SDS011;6042;41.326;19.826;2023-03-23T13:44:25;2.43;;;2.00;;
11964;SDS011;6042;41.326;19.826;2023-03-23T13:47:04;5.33;;;2.10;;
11964;SDS011;6042;41.326;19.826;2023-03-23T13:49:44;2.00;;;1.90;;
11964;SDS011;6042;41.326;19.826;2023-03-23T13:52:16;5.50;;;2.00;;
11964;SDS011;6042;41.326;19.826;2023-03-23T13:54:50;2.47;;;1.63;;
11964;SDS011;6042;41.326;19.826;2023-03-23T13:57:24;2.47;;;2.07;;
11964;SDS011;6042;41.326;19.826;2023-03-23T14:00:08;3.57;;;1.80;;
11964;SDS011;6042;41.326;19.826;2023-03-23T14:02:51;2.63;;;1.73;;
11964;SDS011;6042;41.326;19.826;2023-03-23T14:05:31;1.67;;;1.57;;
11964;SDS011;6042;41.326;19.826;2023-03-23T14:08:03;5.53;;;2.20;;
11964;SDS011;6042;41.326;19.826;2023-03-23T14:10:41;3.77;;;2.63;;
11964;SDS011;6042;41.326;19.826;2023-03-23T14:13:16;2.63;;;2.23;;
11964;SDS011;6042;41.326;19.826;2023-03-23T14:15:54;3.03;;;2.73;;
11964;SDS011;6042;41.326;19.826;2023-03-23T14:18:29;2.83;;;2.27;;
11964;SDS011;6042;41.326;19.826;2023-03-23T14:21:11;2.77;;;2.03;;
11964;SDS011;6042;41.326;19.826;2023-03-23T14:23:43;3.17;;;2.27;;
11964;SDS011;6042;41.326;19.826;2023-03-23T14:26:12;3.73;;;2.60;;
11964;SDS011;6042;41.326;19.826;2023-03-23T14:28:43;3.37;;;2.27;;
11964;SDS011;6042;41.326;19.826;2023-03-23T14:31:14;2.17;;;1.97;;
11964;SDS011;6042;41.326;19.826;2023-03-23T14:33:45;4.60;;;2.47;;
11964;SDS011;6042;41.326;19.826;2023-03-23T14:36:14;7.80;;;3.10;;
11964;SDS011;6042;41.326;19.826;2023-03-23T14:38:47;8.33;;;2.80;;
11964;SDS011;6042;41.326;19.826;2023-03-23T14:41:22;7.37;;;2.77;;
11964;SDS011;6042;41.326;19.826;2023-03-23T14:43:50;3.33;;;2.60;;
11964;SDS011;6042;41.326;19.826;2023-03-23T14:46:17;4.33;;;2.20;;
11964;SDS011;6042;41.326;19.826;2023-03-23T14:48:44;3.63;;;3.00;;
11964;SDS011;6042;41.326;19.826;2023-03-23T14:51:16;5.30;;;2.70;;
11964;SDS011;6042;41.326;19.826;2023-03-23T14:53:47;3.73;;;3.07;;
11964;SDS011;6042;41.326;19.826;2023-03-23T14:56:16;4.83;;;3.07;;
11964;SDS011;6042;41.326;19.826;2023-03-23T14:58:46;3.33;;;3.03;;
11964;SDS011;6042;41.326;19.826;2023-03-23T15:01:17;3.57;;;3.23;;
11964;SDS011;6042;41.326;19.826;2023-03-23T15:03:49;5.13;;;3.57;;
11964;SDS011;6042;41.326;19.826;2023-03-23T15:06:20;4.97;;;3.50;;
11964;SDS011;6042;41.326;19.826;2023-03-23T15:08:52;5.43;;;3.70;;
11964;SDS011;6042;41.326;19.826;2023-03-23T15:11:23;5.07;;;3.33;;
11964;SDS011;6042;41.326;19.826;2023-03-23T15:13:53;8.27;;;3.73;;
11964;SDS011;6042;41.326;19.826;2023-03-23T15:16:25;5.57;;;3.87;;
11964;SDS011;6042;41.326;19.826;2023-03-23T15:18:54;12.97;;;4.07;;
11964;SDS011;6042;41.326;19.826;2023-03-23T15:21:24;5.43;;;4.20;;
11964;SDS011;6042;41.326;19.826;2023-03-23T15:23:56;6.67;;;4.47;;
11964;SDS011;6042;41.326;19.826;2023-03-23T15:26:25;8.13;;;4.23;;
11964;SDS011;6042;41.326;19.826;2023-03-23T15:29:00;5.27;;;4.23;;
11964;SDS011;6042;41.326;19.826;2023-03-23T15:31:30;7.93;;;4.37;;
11964;SDS011;6042;41.326;19.826;2023-03-23T15:33:59;8.83;;;4.10;;
11964;SDS011;6042;41.326;19.826;2023-03-23T15:36:32;6.40;;;4.33;;
11964;SDS011;6042;41.326;19.826;2023-03-23T15:39:02;4.90;;;4.20;;